Saturday, August 18, 2018, 3:48 PM EDT
Back to Local

K1P1, Plymouth, Plymouth Municipal Airport

Location: Plymouth, NH, United States Lat: 43.779
Local Time: 3:48 PM EDT (19:48 GMT) Lon: -71.754
Time Zone: US/Eastern Elev: 505 ft

Show me the last for .
Show Decoded

2018-08-18 15:35 METAR K1P1 181935Z AUTO 29006KT 10SM SCT032 SCT039 22/17 A2982 RMK AO2 T02210168
                 =
2018-08-18 15:15 METAR K1P1 181915Z AUTO 31007KT 10SM BKN030 BKN037 22/17 A2982 RMK AO2 T02240167
                 =
2018-08-18 14:55 METAR K1P1 181855Z AUTO 28008KT 10SM BKN030 BKN039 22/17 A2982 RMK AO2 T02200171
                 =
2018-08-18 14:35 METAR K1P1 181835Z AUTO 28005KT 10SM SCT025 BKN033 BKN039 22/17 A2982 RMK AO2
                 T02150169 =
2018-08-18 14:15 METAR K1P1 181815Z AUTO 27006KT 10SM OVC027 21/17 A2982 RMK AO2 T02070167 =
2018-08-18 13:55 METAR K1P1 181755Z AUTO 28006G14KT 10SM OVC029 21/17 A2982 RMK AO2 T02120168
                 10235 20207 =
2018-08-18 13:35 METAR K1P1 181735Z AUTO 27005KT 10SM OVC029 22/17 A2982 RMK AO2 T02190170 =
2018-08-18 13:15 METAR K1P1 181715Z AUTO 29008KT 10SM OVC029 23/17 A2982 RMK AO2 T02270170 =
2018-08-18 12:55 METAR K1P1 181655Z AUTO 28008KT 10SM OVC029 22/17 A2982 RMK AO2 T02220169 =
2018-08-18 12:35 METAR K1P1 181635Z AUTO 29009KT 10SM SCT024 BKN034 23/18 A2981 RMK AO2 T02310175
                 =
2018-08-18 12:15 METAR K1P1 181615Z AUTO 28009KT 10SM SCT032 SCT039 24/18 A2981 RMK AO2 T02350177
                 =
2018-08-18 11:55 METAR K1P1 181555Z AUTO 28007KT 10SM SCT030 BKN036 23/18 A2982 RMK AO2 T02250176
                 =
2018-08-18 11:35 METAR K1P1 181535Z AUTO 31005KT 10SM SCT028 OVC036 23/17 A2982 RMK AO2 T02250173
                 =
2018-08-18 11:15 METAR K1P1 181515Z AUTO 32007KT 10SM BKN025 OVC032 22/17 A2982 RMK AO2 T02220170
                 =
2018-08-18 10:55 METAR K1P1 181455Z AUTO 31008KT 10SM BKN025 BKN095 OVC120 23/18 A2981 RMK AO2
                 T02260181 =
2018-08-18 10:35 METAR K1P1 181435Z AUTO 29003KT 10SM SCT027 SCT095 BKN120 23/18 A2981 RMK AO2
                 T02250178 =
2018-08-18 10:15 METAR K1P1 181415Z AUTO 29006KT 10SM SCT025 BKN120 22/18 A2981 RMK AO2 T02220180
                 =
2018-08-18 09:55 METAR K1P1 181355Z AUTO 27005KT 10SM SCT042 BKN120 22/18 A2981 RMK AO2 T02160178
                 =
2018-08-18 09:35 METAR K1P1 181335Z AUTO 29007KT 10SM BKN040 22/18 A2980 RMK AO2 T02190181 =
2018-08-18 09:15 METAR K1P1 181315Z AUTO 28008KT 10SM SCT026 BKN038 22/18 A2980 RMK AO2 T02170182
                 =
2018-08-18 08:55 METAR K1P1 181255Z AUTO 29003KT 10SM SCT026 SCT031 OVC036 22/19 A2980 RMK AO2
                 LTG DSNT E T02150194 =
2018-08-18 08:35 METAR K1P1 181235Z AUTO 31003KT 10SM BKN028 OVC036 21/20 A2980 RMK AO2 T02110196
                 =
2018-08-18 08:15 METAR K1P1 181215Z AUTO 00000KT 10SM -RA BKN028 BKN036 OVC110 21/20 A2980 RMK
                 AO2 T02080195 =
2018-08-18 07:55 METAR K1P1 181155Z AUTO 00000KT 10SM -RA SCT026 BKN031 OVC036 21/20 A2980 RMK
                 AO2 P0001 60005 70124 T02080199 10209 20205 =
2018-08-18 07:35 METAR K1P1 181135Z AUTO 28006KT 10SM SCT018 SCT025 OVC032 21/20 A2980 RMK AO2
                 P0001 T02080200 =
2018-08-18 07:15 METAR K1P1 181115Z AUTO 00000KT 3SM DZ BKN020 BKN027 OVC035 21/20 A2979 RMK AO2
                 LTG DSNT S P0001 T02060200 =
2018-08-18 06:55 METAR K1P1 181055Z AUTO 00000KT 3SM BR BKN021 OVC026 21/20 A2979 RMK AO2
                 T02050198 =
2018-08-18 06:35 METAR K1P1 181035Z AUTO 00000KT 2 1/2SM BR SCT019 BKN024 OVC043 21/20 A2979 RMK
                 AO2 LTG DSNT NE T02050197 =
2018-08-18 06:15 METAR K1P1 181015Z AUTO 00000KT 4SM BR BKN022 BKN038 OVC065 21/20 A2979 RMK AO2
                 T02050197 =
2018-08-18 05:55 METAR K1P1 180955Z AUTO 00000KT 4SM BR SCT017 BKN021 OVC027 21/20 A2979 RMK AO2
                 T02050197 =
2018-08-18 05:35 METAR K1P1 180935Z AUTO 00000KT 4SM BR SCT001 OVC017 21/20 A2978 RMK AO2
                 T02050196 =
2018-08-18 05:15 METAR K1P1 180915Z AUTO 00000KT 4SM BR SCT001 OVC017 21/20 A2978 RMK AO2
                 T02050197 =
2018-08-18 04:55 METAR K1P1 180855Z AUTO 00000KT 3SM BR BKN001 OVC017 21/20 A2977 RMK AO2 60004
                 T02050196 =
2018-08-18 04:35 METAR K1P1 180835Z AUTO 00000KT 4SM BR SCT001 SCT010 OVC017 21/20 A2978 RMK AO2
                 T02050197 =
2018-08-18 04:15 METAR K1P1 180815Z AUTO 00000KT 4SM -RA BKN003 BKN010 OVC019 21/20 A2977 RMK AO2
                 T02050196 =
2018-08-18 03:55 METAR K1P1 180755Z AUTO 00000KT 4SM -DZ BKN003 OVC021 21/20 A2978 RMK AO2 P0003
                 T02050196 =
2018-08-18 03:35 METAR K1P1 180735Z AUTO 00000KT 4SM -RA SCT003 BKN019 BKN029 21/20 A2979 RMK AO2
                 LTG DSNT N P0003 T02050196 =
2018-08-18 03:15 METAR K1P1 180715Z AUTO 00000KT 4SM TSRA SCT003 BKN022 OVC035 21/20 A2980 RMK
                 AO2 P0002 T02050197 =
2018-08-18 02:55 METAR K1P1 180655Z AUTO 00000KT 4SM -RA SCT003 BKN021 OVC026 21/20 A2980 RMK AO2
                 LTG DSNT NW T02050197 =
2018-08-18 02:35 METAR K1P1 180635Z AUTO 00000KT 5SM BR SCT006 BKN022 OVC027 21/20 A2981 RMK AO2
                 LTG DSNT NW T02050197 =
2018-08-18 02:15 METAR K1P1 180615Z AUTO 00000KT 7SM OVC006 21/20 A2982 RMK AO2 T02050197 =
2018-08-18 01:55 METAR K1P1 180555Z AUTO 00000KT 5SM BR BKN004 BKN012 OVC024 21/20 A2982 RMK AO2
                 LTG DSNT NW 60119 T02050197 10224 20205 =
2018-08-18 01:35 METAR K1P1 180535Z AUTO 00000KT 5SM -DZ SCT011 BKN025 OVC038 21/20 A2983 RMK AO2
                 LTG DSNT E T02050197 =
2018-08-18 01:15 METAR K1P1 180515Z AUTO 00000KT 5SM -RA SCT002 BKN010 OVC021 21/20 A2984 RMK AO2
                 T02050197 =
2018-08-18 00:55 METAR K1P1 180455Z AUTO 00000KT 5SM BR SCT004 BKN010 OVC026 21/20 A2986 RMK AO2
                 LTG DSNT W T02050197 =
2018-08-18 00:35 METAR K1P1 180435Z AUTO 00000KT 4SM BR SCT004 BKN010 OVC025 21/20 A2987 RMK AO2
                 T02050196 =
2018-08-18 00:15 METAR K1P1 180415Z AUTO 00000KT 7SM SCT004 OVC010 21/20 A2988 RMK AO2 T02060197
                 =
2018-08-17 23:55 METAR K1P1 180355Z AUTO 00000KT 7SM OVC010 21/20 A2988 RMK AO2 LTG DSNT NW P0013
                 T02070198 402510116 =
2018-08-17 23:35 METAR K1P1 180335Z AUTO 00000KT 7SM SCT001 BKN010 OVC015 21/20 A2989 RMK AO2
                 P0013 T02060197 =
2018-08-17 23:15 METAR K1P1 180315Z AUTO 00000KT 1 1/2SM -RA SCT003 BKN006 OVC013 21/20 A2989 RMK
                 AO2 P0013 T02060196 =
2018-08-17 22:55 METAR K1P1 180255Z AUTO 00000KT 4SM RA SCT008 BKN015 OVC023 21/20 A2990 RMK AO2
                 LTG DSNT SE P0017 60105 T02060196 =
2018-08-17 22:35 METAR K1P1 180235Z AUTO 00000KT 10SM -RA SCT007 BKN023 OVC049 21/20 A2990 RMK
                 AO2 LTG DSNT E AND SE P0015 T02060196 =
2018-08-17 22:15 METAR K1P1 180215Z AUTO 00000KT 2SM RA BKN003 BKN008 OVC025 21/20 A2991 RMK AO2
                 LTG DSNT E THRU S P0015 T02050195 =
2018-08-17 21:55 METAR K1P1 180155Z AUTO 13003KT 3/4SM +TSRA BKN001 BKN005 OVC013 21/19 A2991 RMK
                 AO2 LTG DSNT ALQS P0085 T02050193 =
2018-08-17 21:35 METAR K1P1 180135Z AUTO 32005KT 2 1/2SM +TSRA SCT010 OVC015 21/20 A2994 RMK AO2
                 LTG DSNT ALQS P0023 T02080195 =
2018-08-17 21:15 METAR K1P1 180115Z AUTO 09003KT 7SM TSRA OVC017 21/19 A2993 RMK AO2 LTG DSNT
                 ALQS P0003 T02100194 =
2018-08-17 20:55 METAR K1P1 180055Z AUTO 10003KT 7SM TSRA OVC017 22/19 A2993 RMK AO2 LTG DSNT SW
                 THRU NW P0001 T02150193 =
2018-08-17 20:35 METAR K1P1 180035Z AUTO 00000KT 10SM TS OVC017 22/19 A2993 RMK AO2 LTG DSNT ALQS
                 T02180192 =
2018-08-17 20:15 METAR K1P1 180015Z AUTO 00000KT 10SM OVC017 22/19 A2993 RMK AO2 LTG DSNT W
                 T02200190 =
2018-08-17 19:55 METAR K1P1 172355Z AUTO 00000KT 10SM OVC021 23/19 A2993 RMK AO2 LTG DSNT W
                 T02250187 10246 20225 =
2018-08-17 19:35 METAR K1P1 172335Z AUTO 07004KT 10SM OVC021 23/19 A2993 RMK AO2 LTG DSNT W
                 T02250186 =
2018-08-17 19:15 METAR K1P1 172315Z AUTO 00000KT 10SM OVC023 23/19 A2994 RMK AO2 LTG DSNT SW AND
                 W T02270187 =
2018-08-17 18:55 METAR K1P1 172255Z AUTO 00000KT 10SM OVC025 23/19 A2994 RMK AO2 T02300190 =
2018-08-17 18:35 METAR K1P1 172235Z AUTO 00000KT 10SM OVC027 23/19 A2995 RMK AO2 LTG DSNT SW
                 T02290190 =
2018-08-17 18:15 METAR K1P1 172215Z AUTO 00000KT 10SM OVC029 23/19 A2996 RMK AO2 T02310188 =
2018-08-17 17:55 METAR K1P1 172155Z AUTO 00000KT 10SM OVC029 23/19 A2996 RMK AO2 T02330185 =
2018-08-17 17:35 METAR K1P1 172135Z AUTO 09003KT 10SM SCT031 BKN055 24/18 A2997 RMK AO2 T02350184
                 =
2018-08-17 17:15 METAR K1P1 172115Z AUTO 09003KT 10SM SCT033 24/19 A2997 RMK AO2 T02420185 =
2018-08-17 16:55 METAR K1P1 172055Z AUTO 07003KT 10SM BKN033 BKN070 BKN080 24/19 A2997 RMK AO2
                 T02380189 =
2018-08-17 16:35 METAR K1P1 172035Z AUTO 00000KT 10SM SCT070 OVC080 24/19 A2998 RMK AO2 T02380187
                 =
2018-08-17 16:15 METAR K1P1 172015Z AUTO 00000KT 10SM SCT028 BKN070 BKN080 23/19 A2999 RMK AO2
                 LTG DSNT S T02300187 =
2018-08-17 15:55 METAR K1P1 171955Z AUTO 00000KT 10SM SCT070 SCT120 23/18 A3000 RMK AO2 T02300183
                 =

Support USWX by starting your Amazon purchase here.